Time;durP1;ratioP1;P1;durP2;ratioP2;P2;SDS_P1;SDS_P2;PMS_P1;PMS_P2;Temp;Humidity;BMP_temperature;BMP_pressure;BME280_temperature;BME280_humidity;BME280_pressure;Samples;Min_cycle;Max_cycle;Signal;HPM_P1;HPM_P2
2023/08/19 00:01:15;;;;;;;11.63;10.50;;;;;;;;;;5048131;28;20458;-80
2023/08/19 00:03:48;;;;;;;12.67;10.13;;;;;;;;;;5049971;28;20544;-81
2023/08/19 00:06:30;;;;;;;11.30;10.30;;;;;;;;;;5047971;28;20525;-82
2023/08/19 00:08:58;;;;;;;11.60;9.50;;;;;;;;;;5047330;28;20445;-80
2023/08/19 00:11:25;;;;;;;10.77;9.67;;;;;;;;;;5048714;28;20461;-81
2023/08/19 00:13:53;;;;;;;13.63;9.70;;;;;;;;;;5044932;28;20494;-80
2023/08/19 00:16:20;;;;;;;11.97;10.77;;;;;;;;;;5045226;28;20489;-81
2023/08/19 00:18:50;;;;;;;11.83;10.63;;;;;;;;;;5047622;28;20870;-80
2023/08/19 00:21:23;;;;;;;16.40;10.73;;;;;;;;;;5049066;28;20458;-82
2023/08/19 00:23:54;;;;;;;14.10;11.83;;;;;;;;;;5049200;28;20454;-81
2023/08/19 00:26:44;;;;;;;12.90;11.40;;;;;;;;;;5048891;28;20467;-82
2023/08/19 00:29:13;;;;;;;13.47;11.50;;;;;;;;;;5045686;28;20476;-82
2023/08/19 00:31:40;;;;;;;14.60;10.10;;;;;;;;;;5032447;28;20502;-82
2023/08/19 00:34:10;;;;;;;13.87;10.97;;;;;;;;;;5045647;28;20485;-82
2023/08/19 00:36:37;;;;;;;13.10;10.73;;;;;;;;;;5050273;28;20544;-83
2023/08/19 00:39:05;;;;;;;11.90;10.60;;;;;;;;;;5048097;28;20443;-81
2023/08/19 00:41:34;;;;;;;10.50;9.40;;;;;;;;;;5047596;28;20509;-81
2023/08/19 00:44:01;;;;;;;10.80;9.70;;;;;;;;;;5045541;28;20453;-82
2023/08/19 00:46:29;;;;;;;14.13;10.93;;;;;;;;;;5044257;28;20470;-79
2023/08/19 00:48:57;;;;;;;12.20;11.00;;;;;;;;;;5044570;28;20838;-79
2023/08/19 00:51:26;;;;;;;11.33;10.07;;;;;;;;;;5045496;28;20454;-79
2023/08/19 00:53:56;;;;;;;10.93;9.90;;;;;;;;;;5044901;28;20478;-80
2023/08/19 00:56:26;;;;;;;13.67;11.70;;;;;;;;;;5042392;28;20458;-82
2023/08/19 00:58:59;;;;;;;11.10;10.00;;;;;;;;;;5047809;28;20466;-81
2023/08/19 01:01:31;;;;;;;11.80;10.60;;;;;;;;;;5045525;28;20470;-82
2023/08/19 01:03:58;;;;;;;12.70;11.40;;;;;;;;;;5045170;28;20461;-79
2023/08/19 01:06:32;;;;;;;13.97;11.30;;;;;;;;;;5045077;28;20457;-79
2023/08/19 01:09:04;;;;;;;12.17;10.97;;;;;;;;;;5045029;28;20481;-79
2023/08/19 01:11:39;;;;;;;15.37;12.40;;;;;;;;;;5046729;28;20787;-79
2023/08/19 01:14:10;;;;;;;15.33;13.57;;;;;;;;;;5044078;28;20494;-80
2023/08/19 01:16:39;;;;;;;21.17;14.10;;;;;;;;;;5045657;28;20450;-80
2023/08/19 01:19:11;;;;;;;15.90;12.60;;;;;;;;;;5044921;28;20453;-81
2023/08/19 01:21:40;;;;;;;14.40;12.90;;;;;;;;;;5046239;28;20457;-82
2023/08/19 01:24:12;;;;;;;15.20;11.50;;;;;;;;;;5043467;28;20581;-82
2023/08/19 01:26:41;;;;;;;14.77;11.73;;;;;;;;;;5044677;28;20480;-82
2023/08/19 01:29:09;;;;;;;16.20;13.03;;;;;;;;;;5043767;28;20492;-83
2023/08/19 01:31:36;;;;;;;15.13;12.20;;;;;;;;;;5044666;28;20589;-81
2023/08/19 01:34:03;;;;;;;12.93;11.73;;;;;;;;;;5046474;28;20494;-80
2023/08/19 01:36:34;;;;;;;13.93;12.43;;;;;;;;;;5047856;28;20498;-82
2023/08/19 01:39:02;;;;;;;15.20;11.00;;;;;;;;;;5047859;28;20457;-82
2023/08/19 01:41:30;;;;;;;14.10;12.70;;;;;;;;;;5045657;28;20454;-79
2023/08/19 01:44:00;;;;;;;14.30;12.10;;;;;;;;;;5046049;28;20453;-82
2023/08/19 01:46:28;;;;;;;14.47;13.00;;;;;;;;;;5045231;28;20458;-82
2023/08/19 01:48:56;;;;;;;15.13;12.33;;;;;;;;;;5044850;28;20465;-80
2023/08/19 01:51:23;;;;;;;13.90;12.50;;;;;;;;;;5047034;28;20450;-81
2023/08/19 01:53:51;;;;;;;13.10;11.40;;;;;;;;;;5044144;28;20458;-82
2023/08/19 01:56:19;;;;;;;13.40;12.00;;;;;;;;;;5044242;28;20494;-81
2023/08/19 01:58:48;;;;;;;13.70;12.37;;;;;;;;;;5043086;28;20466;-82
2023/08/19 02:01:20;;;;;;;13.17;11.87;;;;;;;;;;5047321;28;20489;-83
2023/08/19 02:03:47;;;;;;;13.97;11.50;;;;;;;;;;5044590;28;20470;-82
2023/08/19 02:06:15;;;;;;;14.13;12.00;;;;;;;;;;5048058;28;20434;-81
2023/08/19 02:08:42;;;;;;;15.93;11.57;;;;;;;;;;5043741;28;20485;-83
2023/08/19 02:11:10;;;;;;;17.00;13.17;;;;;;;;;;5046107;28;20487;-80
2023/08/19 02:13:37;;;;;;;14.07;12.13;;;;;;;;;;5044596;28;20846;-83
2023/08/19 02:16:05;;;;;;;16.40;12.20;;;;;;;;;;5044106;28;20501;-81
2023/08/19 02:18:34;;;;;;;13.50;11.67;;;;;;;;;;5042089;28;20451;-81
2023/08/19 02:21:02;;;;;;;12.90;11.63;;;;;;;;;;5045614;28;20502;-84
2023/08/19 02:23:30;;;;;;;14.93;13.20;;;;;;;;;;5047858;28;20454;-80
2023/08/19 02:25:58;;;;;;;15.30;12.70;;;;;;;;;;5048129;28;20470;-82
2023/08/19 02:28:25;;;;;;;13.30;11.90;;;;;;;;;;5046363;28;20469;-82
2023/08/19 02:30:53;;;;;;;15.17;13.67;;;;;;;;;;5046096;28;20492;-81
2023/08/19 02:33:26;;;;;;;20.67;12.63;;;;;;;;;;5047797;28;20450;-81
2023/08/19 02:35:56;;;;;;;13.57;12.23;;;;;;;;;;5046963;28;20871;-81
2023/08/19 02:38:23;;;;;;;14.20;12.00;;;;;;;;;;5047488;28;20465;-79
2023/08/19 02:40:57;;;;;;;16.17;12.27;;;;;;;;;;5048456;28;20528;-80
2023/08/19 02:43:25;;;;;;;14.20;12.70;;;;;;;;;;5047680;28;20894;-81
2023/08/19 02:45:53;;;;;;;15.70;12.20;;;;;;;;;;5050095;28;20454;-81
2023/08/19 02:48:20;;;;;;;16.10;12.50;;;;;;;;;;5047500;28;20542;-81
2023/08/19 02:50:48;;;;;;;15.03;12.60;;;;;;;;;;5047754;28;20478;-82
2023/08/19 02:53:17;;;;;;;13.60;12.30;;;;;;;;;;5044336;28;20878;-81
2023/08/19 02:55:45;;;;;;;14.43;12.80;;;;;;;;;;5043515;28;20498;-80
2023/08/19 02:58:13;;;;;;;14.10;12.60;;;;;;;;;;5045330;28;20435;-81
2023/08/19 03:00:41;;;;;;;19.07;13.00;;;;;;;;;;5042592;28;20492;-80
2023/08/19 03:03:08;;;;;;;13.23;11.83;;;;;;;;;;5045227;28;20568;-81
2023/08/19 03:05:39;;;;;;;14.13;12.63;;;;;;;;;;5043397;28;20484;-83
2023/08/19 03:08:07;;;;;;;15.57;12.97;;;;;;;;;;5050808;28;20470;-79
2023/08/19 03:10:36;;;;;;;14.70;13.20;;;;;;;;;;5049143;28;20446;-83
2023/08/19 03:13:04;;;;;;;14.47;12.97;;;;;;;;;;5046915;28;20461;-82
2023/08/19 03:15:32;;;;;;;15.70;11.90;;;;;;;;;;5047491;28;20486;-80
2023/08/19 03:18:00;;;;;;;14.13;12.63;;;;;;;;;;5048369;28;20462;-79
2023/08/19 03:20:27;;;;;;;15.23;12.50;;;;;;;;;;5051194;28;20465;-81
2023/08/19 03:22:55;;;;;;;15.20;11.63;;;;;;;;;;5048544;28;20458;-80
2023/08/19 03:25:22;;;;;;;15.47;12.30;;;;;;;;;;5048835;28;20458;-79
2023/08/19 03:27:51;;;;;;;17.50;13.50;;;;;;;;;;5048368;28;20458;-81
2023/08/19 03:30:19;;;;;;;15.73;14.23;;;;;;;;;;5049992;28;20524;-82
2023/08/19 03:32:59;;;;;;;15.80;12.53;;;;;;;;;;5050774;28;20493;-80
2023/08/19 03:35:27;;;;;;;12.70;11.40;;;;;;;;;;5047094;28;20924;-80
2023/08/19 03:37:55;;;;;;;14.13;12.73;;;;;;;;;;5047971;28;20884;-81
2023/08/19 03:40:22;;;;;;;19.47;13.87;;;;;;;;;;5047827;28;20457;-80
2023/08/19 03:42:51;;;;;;;16.80;12.00;;;;;;;;;;5049490;28;20482;-81
2023/08/19 03:45:18;;;;;;;14.97;13.00;;;;;;;;;;5051314;28;20461;-81
2023/08/19 03:47:47;;;;;;;15.97;12.93;;;;;;;;;;5048957;28;20612;-80
2023/08/19 03:50:20;;;;;;;18.83;13.10;;;;;;;;;;5050750;28;20458;-80
2023/08/19 03:52:47;;;;;;;14.90;11.90;;;;;;;;;;5047090;28;20484;-80
2023/08/19 03:55:15;;;;;;;16.90;12.37;;;;;;;;;;5048741;28;20553;-81
2023/08/19 03:57:42;;;;;;;14.30;12.80;;;;;;;;;;5047240;28;20550;-80
2023/08/19 04:00:17;;;;;;;14.30;11.93;;;;;;;;;;5047749;28;20804;-80
2023/08/19 04:02:45;;;;;;;14.23;12.73;;;;;;;;;;5050368;28;20513;-82
2023/08/19 04:05:15;;;;;;;22.43;13.70;;;;;;;;;;5048201;28;20450;-82
2023/08/19 04:07:45;;;;;;;13.57;12.20;;;;;;;;;;5049021;28;20481;-81
2023/08/19 04:10:16;;;;;;;15.30;13.27;;;;;;;;;;5046770;28;20546;-81
2023/08/19 04:12:44;;;;;;;16.57;13.20;;;;;;;;;;5046859;28;20470;-82
2023/08/19 04:15:12;;;;;;;16.47;13.40;;;;;;;;;;5048000;28;20771;-81
2023/08/19 04:17:41;;;;;;;13.47;12.07;;;;;;;;;;5047580;28;20918;-81
2023/08/19 04:20:09;;;;;;;13.67;11.93;;;;;;;;;;5046950;28;20454;-84
2023/08/19 04:22:37;;;;;;;16.03;13.03;;;;;;;;;;5047976;28;20481;-83
2023/08/19 04:25:05;;;;;;;17.50;12.87;;;;;;;;;;5047503;28;20858;-84
2023/08/19 04:27:32;;;;;;;21.40;13.00;;;;;;;;;;5046556;28;20557;-81
2023/08/19 04:30:00;;;;;;;14.67;12.00;;;;;;;;;;5049020;28;20458;-80
2023/08/19 04:32:28;;;;;;;14.80;11.70;;;;;;;;;;5048318;28;20509;-82
2023/08/19 04:34:56;;;;;;;13.77;12.30;;;;;;;;;;5047844;28;20473;-82
2023/08/19 04:37:24;;;;;;;14.20;12.80;;;;;;;;;;5045779;28;20450;-82
2023/08/19 04:39:52;;;;;;;15.47;13.70;;;;;;;;;;5046241;28;20454;-81
2023/08/19 04:42:20;;;;;;;15.80;12.93;;;;;;;;;;5046255;28;20458;-81
2023/08/19 04:44:47;;;;;;;15.60;13.27;;;;;;;;;;5048096;28;20465;-83
2023/08/19 04:47:18;;;;;;;18.37;13.13;;;;;;;;;;5044047;28;20461;-81
2023/08/19 04:49:45;;;;;;;15.60;12.97;;;;;;;;;;5043598;28;20447;-80
2023/08/19 04:52:15;;;;;;;14.00;12.60;;;;;;;;;;5044657;28;20454;-81
2023/08/19 04:54:43;;;;;;;12.57;11.27;;;;;;;;;;5045925;28;20459;-82
2023/08/19 04:57:10;;;;;;;14.07;12.57;;;;;;;;;;5044539;28;20907;-79
2023/08/19 04:59:37;;;;;;;16.50;12.67;;;;;;;;;;5046755;28;20782;-81
2023/08/19 05:02:08;;;;;;;22.17;13.43;;;;;;;;;;5045378;28;20438;-82
2023/08/19 05:04:35;;;;;;;13.30;11.77;;;;;;;;;;5043995;28;20526;-79
2023/08/19 05:07:03;;;;;;;13.50;11.80;;;;;;;;;;5043696;28;20482;-81
2023/08/19 05:09:32;;;;;;;14.80;13.03;;;;;;;;;;5043117;28;20466;-82
2023/08/19 05:11:59;;;;;;;14.37;12.53;;;;;;;;;;5047902;28;20489;-80
2023/08/19 05:14:30;;;;;;;14.33;11.90;;;;;;;;;;5049203;28;20490;-81
2023/08/19 05:16:57;;;;;;;13.23;11.83;;;;;;;;;;5048035;28;20506;-81
2023/08/19 05:19:25;;;;;;;12.93;10.60;;;;;;;;;;5042225;28;20846;-81
2023/08/19 05:21:52;;;;;;;10.93;9.83;;;;;;;;;;5049735;28;20454;-81
2023/08/19 05:24:20;;;;;;;11.43;9.60;;;;;;;;;;5029050;28;20451;-82
2023/08/19 05:26:49;;;;;;;10.33;9.23;;;;;;;;;;5028719;28;20459;-80
2023/08/19 05:29:17;;;;;;;11.60;10.00;;;;;;;;;;5024301;28;20457;-82
2023/08/19 05:31:44;;;;;;;13.87;9.40;;;;;;;;;;5024820;28;20475;-79
2023/08/19 05:34:12;;;;;;;10.97;9.70;;;;;;;;;;5025662;28;20463;-81
2023/08/19 05:36:39;;;;;;;10.07;9.07;;;;;;;;;;5024612;28;20522;-82
2023/08/19 05:39:06;;;;;;;9.60;8.50;;;;;;;;;;5026306;28;20642;-81
2023/08/19 05:41:34;;;;;;;13.10;9.50;;;;;;;;;;5021591;28;20462;-80
2023/08/19 05:44:03;;;;;;;10.80;9.70;;;;;;;;;;5020290;28;20465;-82
2023/08/19 05:46:31;;;;;;;12.47;9.70;;;;;;;;;;5022117;28;20503;-82
2023/08/19 05:48:58;;;;;;;11.20;9.50;;;;;;;;;;5025035;28;20462;-81
2023/08/19 05:51:26;;;;;;;13.70;9.33;;;;;;;;;;5023994;28;20474;-80
2023/08/19 05:53:55;;;;;;;12.10;10.77;;;;;;;;;;5022761;28;20485;-80
2023/08/19 05:56:23;;;;;;;14.33;10.70;;;;;;;;;;5021182;28;20491;-81
2023/08/19 05:58:50;;;;;;;11.97;10.70;;;;;;;;;;5021289;28;20455;-80
2023/08/19 06:01:19;;;;;;;12.50;10.90;;;;;;;;;;5021692;28;20475;-82
2023/08/19 06:03:46;;;;;;;12.30;9.40;;;;;;;;;;5020243;28;20459;-83
2023/08/19 06:06:14;;;;;;;10.83;9.70;;;;;;;;;;5019913;28;20478;-81
2023/08/19 06:08:42;;;;;;;15.30;11.43;;;;;;;;;;5020575;28;20463;-81
2023/08/19 06:11:09;;;;;;;13.10;11.83;;;;;;;;;;5022194;28;20465;-82
2023/08/19 06:13:37;;;;;;;14.07;10.70;;;;;;;;;;5023029;28;20451;-79
2023/08/19 06:16:05;;;;;;;12.17;10.93;;;;;;;;;;5020290;28;20483;-80
2023/08/19 06:18:34;;;;;;;17.77;10.90;;;;;;;;;;5020492;28;20451;-80
2023/08/19 06:21:02;;;;;;;13.83;10.73;;;;;;;;;;5023436;28;20466;-82
2023/08/19 06:23:30;;;;;;;15.37;10.87;;;;;;;;;;5024719;28;20459;-79
2023/08/19 06:26:02;;;;;;;13.43;10.60;;;;;;;;;;5025545;28;20455;-81
2023/08/19 06:28:37;;;;;;;14.47;11.13;;;;;;;;;;5024283;28;20906;-81
2023/08/19 06:31:04;;;;;;;12.60;11.00;;;;;;;;;;5024514;28;20482;-80
2023/08/19 06:33:34;;;;;;;13.10;10.67;;;;;;;;;;5022014;28;20474;-77
2023/08/19 06:36:02;;;;;;;14.00;10.47;;;;;;;;;;5019565;28;21166;-79
2023/08/19 06:38:31;;;;;;;14.77;12.47;;;;;;;;;;5017734;28;20763;-81
2023/08/19 06:41:03;;;;;;;14.83;11.57;;;;;;;;;;5011550;28;20471;-81
2023/08/19 06:43:31;;;;;;;14.33;11.47;;;;;;;;;;5019220;28;20523;-80
2023/08/19 06:45:59;;;;;;;12.10;10.40;;;;;;;;;;5017511;28;20464;-82
2023/08/19 06:48:27;;;;;;;14.00;11.10;;;;;;;;;;5033117;28;20483;-83
2023/08/19 06:50:57;;;;;;;12.00;10.70;;;;;;;;;;5021687;28;20459;-80
2023/08/19 06:53:24;;;;;;;12.27;10.60;;;;;;;;;;5022086;28;20531;-80
2023/08/19 06:55:56;;;;;;;10.67;9.50;;;;;;;;;;5020323;28;20949;-79
2023/08/19 06:58:25;;;;;;;12.03;10.17;;;;;;;;;;5023193;28;20462;-80
2023/08/19 07:00:56;;;;;;;11.37;10.00;;;;;;;;;;5018789;28;20473;-81
2023/08/19 07:03:25;;;;;;;11.00;9.90;;;;;;;;;;5022179;28;20532;-81
2023/08/19 07:05:53;;;;;;;12.77;10.40;;;;;;;;;;5023417;28;20479;-80
2023/08/19 07:08:23;;;;;;;11.53;9.60;;;;;;;;;;5016587;28;20523;-80
2023/08/19 07:10:51;;;;;;;10.53;9.37;;;;;;;;;;5019205;28;20995;-81
2023/08/19 07:13:18;;;;;;;12.57;10.60;;;;;;;;;;5026621;28;20455;-84
2023/08/19 07:15:48;;;;;;;11.67;10.47;;;;;;;;;;5019159;28;20835;-81
2023/08/19 07:18:18;;;;;;;13.67;10.93;;;;;;;;;;5022974;28;20459;-81
2023/08/19 07:20:54;;;;;;;11.20;10.00;;;;;;;;;;5032635;28;20539;-80
2023/08/19 07:23:25;;;;;;;10.17;9.07;;;;;;;;;;5020433;28;21046;-80
2023/08/19 07:25:54;;;;;;;10.83;9.63;;;;;;;;;;5007191;28;20456;-79
2023/08/19 07:28:29;;;;;;;12.93;10.50;;;;;;;;;;5018515;28;20881;-78
2023/08/19 07:31:38;;;;;;;12.13;9.80;;;;;;;;;;4995672;28;20475;-84
2023/08/19 07:34:11;;;;;;;11.27;8.97;;;;;;;;;;5011709;28;20487;-82
2023/08/19 07:36:40;;;;;;;12.30;9.67;;;;;;;;;;5020691;28;20483;-82
2023/08/19 07:39:11;;;;;;;11.47;9.57;;;;;;;;;;5017599;28;20980;-81
2023/08/19 07:41:46;;;;;;;10.60;9.33;;;;;;;;;;5015971;28;20621;-81
2023/08/19 07:44:14;;;;;;;11.60;10.40;;;;;;;;;;5017510;28;20466;-81
2023/08/19 07:46:48;;;;;;;10.90;9.00;;;;;;;;;;5014577;28;20632;-79
2023/08/19 07:49:24;;;;;;;11.30;9.77;;;;;;;;;;5017127;28;20529;-79
2023/08/19 07:51:55;;;;;;;12.20;10.10;;;;;;;;;;5015203;28;20522;-81
2023/08/19 07:54:29;;;;;;;13.83;10.30;;;;;;;;;;5022152;28;20465;-83
2023/08/19 07:57:00;;;;;;;10.33;9.33;;;;;;;;;;5027555;28;20478;-81
2023/08/19 07:59:28;;;;;;;12.60;11.30;;;;;;;;;;5025710;28;20529;-80
2023/08/19 08:01:56;;;;;;;10.47;9.30;;;;;;;;;;5024593;28;20463;-81
2023/08/19 08:04:24;;;;;;;9.70;8.90;;;;;;;;;;5019935;28;20472;-79
2023/08/19 08:06:52;;;;;;;11.83;9.60;;;;;;;;;;5019601;28;20463;-80
2023/08/19 08:09:23;;;;;;;9.60;8.73;;;;;;;;;;5022153;28;20467;-81
2023/08/19 08:12:00;;;;;;;9.80;8.80;;;;;;;;;;5021503;28;20460;-82
2023/08/19 08:14:28;;;;;;;11.33;9.00;;;;;;;;;;5023419;28;20470;-82
2023/08/19 08:16:58;;;;;;;9.63;8.73;;;;;;;;;;5026705;28;20471;-80
2023/08/19 08:19:26;;;;;;;10.43;9.23;;;;;;;;;;5021370;28;20459;-81
2023/08/19 08:22:04;;;;;;;8.87;7.77;;;;;;;;;;5022677;28;20439;-79
2023/08/19 08:24:38;;;;;;;14.17;11.97;;;;;;;;;;5021322;28;20443;-79
2023/08/19 08:27:07;;;;;;;9.20;8.40;;;;;;;;;;5017212;28;20450;-80
2023/08/19 08:29:35;;;;;;;8.97;8.03;;;;;;;;;;5021538;28;21022;-80
2023/08/19 08:32:03;;;;;;;10.27;8.90;;;;;;;;;;5021641;28;20909;-80
2023/08/19 08:34:30;;;;;;;10.03;9.03;;;;;;;;;;5022526;28;20463;-80
2023/08/19 08:36:58;;;;;;;10.73;8.60;;;;;;;;;;5024201;28;20484;-78
2023/08/19 08:39:25;;;;;;;10.47;8.53;;;;;;;;;;5025030;28;20463;-79
2023/08/19 08:41:53;;;;;;;10.00;8.53;;;;;;;;;;5023785;28;20454;-82
2023/08/19 08:44:25;;;;;;;14.00;8.60;;;;;;;;;;5014069;28;20749;-81
2023/08/19 08:46:58;;;;;;;11.17;9.03;;;;;;;;;;5021602;28;20692;-80
2023/08/19 08:49:27;;;;;;;10.30;9.30;;;;;;;;;;5022502;28;20546;-79
2023/08/19 08:51:55;;;;;;;10.70;9.00;;;;;;;;;;5023599;28;20545;-79
2023/08/19 08:54:24;;;;;;;9.03;8.13;;;;;;;;;;5018211;28;20451;-82
2023/08/19 08:56:52;;;;;;;9.40;8.47;;;;;;;;;;5015436;28;20510;-80
2023/08/19 08:59:56;;;;;;;10.13;8.40;;;;;;;;;;5020103;28;20546;-79
2023/08/19 09:05:33;;;;;;;12.67;9.50;;;;;;;;;;5017831;28;20469;-80
2023/08/19 09:08:04;;;;;;;12.37;10.50;;;;;;;;;;5020243;28;20535;-80
2023/08/19 09:10:40;;;;;;;10.77;9.67;;;;;;;;;;5017675;28;20455;-79
2023/08/19 09:13:25;;;;;;;17.90;11.10;;;;;;;;;;5019010;28;20451;-81
2023/08/19 09:15:58;;;;;;;9.87;8.87;;;;;;;;;;5019131;28;20470;-80
2023/08/19 09:18:28;;;;;;;11.90;9.90;;;;;;;;;;5021838;28;20465;-78
2023/08/19 09:21:00;;;;;;;10.93;8.90;;;;;;;;;;5017778;28;20455;-79
2023/08/19 09:23:42;;;;;;;9.67;8.67;;;;;;;;;;5018783;28;20615;-79
2023/08/19 09:26:14;;;;;;;10.03;8.67;;;;;;;;;;5016009;28;20455;-78
2023/08/19 09:28:47;;;;;;;9.27;8.30;;;;;;;;;;5018158;28;20470;-80
2023/08/19 09:31:24;;;;;;;9.87;8.90;;;;;;;;;;5019539;28;20495;-78
2023/08/19 09:33:55;;;;;;;9.33;8.23;;;;;;;;;;5019050;28;20454;-80
2023/08/19 09:37:03;;;;;;;11.60;9.23;;;;;;;;;;5020288;28;21204;-79
2023/08/19 09:39:40;;;;;;;11.17;10.07;;;;;;;;;;4998756;28;20478;-81
2023/08/19 09:42:11;;;;;;;9.73;8.80;;;;;;;;;;5018625;28;20459;-81
2023/08/19 09:44:46;;;;;;;10.10;9.10;;;;;;;;;;5019510;28;20605;-81
2023/08/19 09:47:20;;;;;;;9.93;8.70;;;;;;;;;;5017841;28;20451;-80
2023/08/19 09:49:59;;;;;;;10.77;9.43;;;;;;;;;;5017952;28;20487;-83
2023/08/19 09:52:32;;;;;;;9.70;8.80;;;;;;;;;;5006875;28;20456;-79
2023/08/19 09:55:03;;;;;;;10.03;8.83;;;;;;;;;;5016460;28;20544;-78
2023/08/19 09:57:38;;;;;;;11.43;9.33;;;;;;;;;;5017312;28;20480;-78
2023/08/19 10:00:12;;;;;;;11.80;9.77;;;;;;;;;;5018643;28;20523;-80
2023/08/19 10:06:00;;;;;;;10.00;9.10;;;;;;;;;;5003563;28;20473;-79
2023/08/19 10:08:50;;;;;;;11.53;9.20;;;;;;;;;;5013722;28;20466;-81
2023/08/19 10:11:19;;;;;;;10.67;8.33;;;;;;;;;;5020638;28;20938;-80
2023/08/19 10:13:53;;;;;;;10.23;9.00;;;;;;;;;;5017283;28;20467;-79
2023/08/19 10:16:24;;;;;;;9.47;8.37;;;;;;;;;;5017048;28;20488;-77
2023/08/19 10:18:55;;;;;;;10.87;9.80;;;;;;;;;;5015480;28;20470;-82
2023/08/19 10:21:25;;;;;;;12.30;8.17;;;;;;;;;;5022426;28;20463;-82
2023/08/19 10:23:57;;;;;;;10.77;9.30;;;;;;;;;;5019989;28;20454;-84
2023/08/19 10:26:26;;;;;;;9.83;8.93;;;;;;;;;;5014541;28;20459;-82
2023/08/19 10:29:04;;;;;;;10.80;9.70;;;;;;;;;;5021835;28;20455;-81
2023/08/19 10:31:35;;;;;;;10.10;9.10;;;;;;;;;;5017024;28;20502;-80
2023/08/19 10:34:26;;;;;;;12.43;9.00;;;;;;;;;;5014122;28;20451;-80
2023/08/19 10:37:12;;;;;;;9.30;8.40;;;;;;;;;;5019904;28;20548;-80
2023/08/19 10:39:48;;;;;;;10.63;9.53;;;;;;;;;;5017807;28;20486;-80
2023/08/19 10:42:28;;;;;;;13.10;10.57;;;;;;;;;;5021269;28;20474;-82
2023/08/19 10:44:59;;;;;;;11.30;10.17;;;;;;;;;;5018554;28;20479;-78
2023/08/19 10:47:43;;;;;;;13.73;10.27;;;;;;;;;;5020710;28;20554;-79
2023/08/19 10:50:13;;;;;;;12.23;10.70;;;;;;;;;;5020116;28;20453;-80
2023/08/19 10:52:59;;;;;;;9.93;8.93;;;;;;;;;;5019443;28;20459;-79
2023/08/19 10:55:30;;;;;;;11.43;10.30;;;;;;;;;;5022496;28;20684;-79
2023/08/19 10:58:15;;;;;;;9.43;8.47;;;;;;;;;;5012785;28;20577;-79
2023/08/19 11:00:43;;;;;;;9.80;8.87;;;;;;;;;;5020694;28;20483;-82
2023/08/19 11:03:12;;;;;;;11.10;9.53;;;;;;;;;;5022753;28;20459;-80
2023/08/19 11:05:49;;;;;;;10.60;9.47;;;;;;;;;;5023016;28;20562;-79
2023/08/19 11:08:17;;;;;;;12.17;9.77;;;;;;;;;;5016597;28;20479;-80
2023/08/19 11:10:48;;;;;;;13.83;9.30;;;;;;;;;;5025906;28;20451;-83
2023/08/19 11:13:17;;;;;;;9.50;8.50;;;;;;;;;;5022535;28;20466;-82
2023/08/19 11:15:45;;;;;;;13.23;10.00;;;;;;;;;;5019883;28;20507;-81
2023/08/19 11:18:20;;;;;;;9.00;7.97;;;;;;;;;;5023095;28;20502;-80
2023/08/19 11:20:52;;;;;;;10.30;9.23;;;;;;;;;;5020066;28;20921;-81
2023/08/19 11:23:28;;;;;;;9.50;8.50;;;;;;;;;;5020171;28;20472;-79
2023/08/19 11:25:58;;;;;;;9.73;8.77;;;;;;;;;;5019938;28;20463;-79
2023/08/19 11:28:27;;;;;;;10.90;9.20;;;;;;;;;;5025916;28;20451;-79
2023/08/19 11:30:55;;;;;;;9.77;8.80;;;;;;;;;;5025906;28;20554;-79
2023/08/19 11:33:26;;;;;;;10.80;8.70;;;;;;;;;;5023741;28;20491;-80
2023/08/19 11:35:54;;;;;;;10.90;9.20;;;;;;;;;;5025045;28;20522;-80
2023/08/19 11:38:22;;;;;;;10.83;9.70;;;;;;;;;;5004073;28;20494;-80
2023/08/19 11:40:52;;;;;;;9.53;8.50;;;;;;;;;;5019137;28;20521;-82
2023/08/19 11:43:25;;;;;;;14.70;9.93;;;;;;;;;;5020866;28;20470;-82
2023/08/19 11:45:54;;;;;;;9.67;8.50;;;;;;;;;;5023044;28;20455;-80
2023/08/19 11:48:22;;;;;;;10.67;9.60;;;;;;;;;;5022841;28;20459;-81
2023/08/19 11:50:51;;;;;;;10.07;8.23;;;;;;;;;;5022323;28;20501;-80
2023/08/19 11:53:25;;;;;;;7.93;7.10;;;;;;;;;;5021350;28;20467;-79
2023/08/19 11:55:57;;;;;;;8.57;7.77;;;;;;;;;;5004850;28;20481;-78
2023/08/19 11:58:27;;;;;;;14.80;10.63;;;;;;;;;;5020289;28;20479;-77
2023/08/19 12:00:55;;;;;;;9.10;7.90;;;;;;;;;;5021306;28;20482;-80
2023/08/19 12:03:24;;;;;;;8.67;7.73;;;;;;;;;;5011051;28;20530;-79
2023/08/19 12:05:54;;;;;;;9.77;8.03;;;;;;;;;;5015984;28;20451;-79
2023/08/19 12:08:29;;;;;;;9.40;7.90;;;;;;;;;;5007739;28;20501;-80
2023/08/19 12:10:57;;;;;;;9.43;8.43;;;;;;;;;;5017798;28;20455;-80
2023/08/19 12:13:28;;;;;;;10.07;8.50;;;;;;;;;;5022034;28;20459;-78
2023/08/19 12:15:58;;;;;;;9.47;7.50;;;;;;;;;;5021118;28;20463;-80
2023/08/19 12:18:26;;;;;;;10.03;9.03;;;;;;;;;;5021113;28;20915;-81
2023/08/19 12:20:56;;;;;;;12.37;9.00;;;;;;;;;;5023521;28;20459;-79
2023/08/19 12:23:24;;;;;;;9.07;8.13;;;;;;;;;;5023929;28;20533;-79
2023/08/19 12:25:52;;;;;;;7.80;6.60;;;;;;;;;;5005335;28;20460;-80
2023/08/19 12:28:31;;;;;;;8.40;7.50;;;;;;;;;;5010055;28;20551;-78
2023/08/19 12:31:00;;;;;;;9.40;8.50;;;;;;;;;;5016837;28;20448;-83
2023/08/19 12:33:28;;;;;;;9.43;8.63;;;;;;;;;;5023201;28;20483;-79
2023/08/19 12:35:56;;;;;;;8.87;7.97;;;;;;;;;;5024150;28;20451;-80
2023/08/19 12:38:28;;;;;;;9.13;8.30;;;;;;;;;;5026612;28;20539;-79
2023/08/19 12:40:55;;;;;;;8.87;7.97;;;;;;;;;;5025551;28;21058;-80
2023/08/19 12:43:34;;;;;;;8.27;7.43;;;;;;;;;;5018646;28;20926;-78
2023/08/19 12:46:04;;;;;;;8.67;7.90;;;;;;;;;;5008415;28;20612;-80
2023/08/19 12:48:32;;;;;;;10.87;9.00;;;;;;;;;;5027473;28;20463;-80
2023/08/19 12:51:00;;;;;;;8.93;8.13;;;;;;;;;;5038530;28;20524;-78
2023/08/19 12:53:30;;;;;;;9.97;9.07;;;;;;;;;;5022320;28;20447;-80
2023/08/19 12:55:58;;;;;;;9.10;7.70;;;;;;;;;;5003966;28;20750;-80
2023/08/19 12:58:26;;;;;;;10.03;9.03;;;;;;;;;;5018185;28;20480;-79
2023/08/19 13:00:54;;;;;;;10.33;9.20;;;;;;;;;;5023297;28;20462;-81
2023/08/19 13:03:23;;;;;;;10.10;8.90;;;;;;;;;;5026318;28;20485;-81
2023/08/19 13:05:55;;;;;;;10.30;9.40;;;;;;;;;;5015791;28;20467;-80
2023/08/19 13:08:23;;;;;;;11.20;10.13;;;;;;;;;;5002153;28;20475;-81
2023/08/19 13:10:51;;;;;;;9.00;8.20;;;;;;;;;;5023211;28;20455;-80
2023/08/19 13:13:18;;;;;;;9.83;8.60;;;;;;;;;;5025397;28;20486;-79
2023/08/19 13:15:46;;;;;;;8.87;7.97;;;;;;;;;;5018942;28;20471;-79
2023/08/19 13:18:15;;;;;;;32.13;8.53;;;;;;;;;;5024881;28;20479;-81
2023/08/19 13:20:45;;;;;;;10.20;9.30;;;;;;;;;;5027437;28;20530;-80
2023/08/19 13:23:18;;;;;;;8.87;7.97;;;;;;;;;;5021198;28;20464;-82
2023/08/19 13:25:45;;;;;;;10.37;8.97;;;;;;;;;;5023410;28;20526;-81
2023/08/19 13:28:16;;;;;;;8.47;7.77;;;;;;;;;;5025717;28;20431;-78
2023/08/19 13:30:51;;;;;;;10.43;8.97;;;;;;;;;;5023838;28;20463;-78
2023/08/19 13:33:51;;;;;;;11.90;9.97;;;;;;;;;;5027392;28;20480;-79
2023/08/19 13:36:43;;;;;;;11.07;9.97;;;;;;;;;;5023501;28;20459;-80
2023/08/19 13:39:17;;;;;;;10.13;9.13;;;;;;;;;;5006247;28;20547;-83
2023/08/19 13:42:15;;;;;;;10.40;8.40;;;;;;;;;;5018603;28;20502;-81
2023/08/19 13:44:48;;;;;;;10.70;8.73;;;;;;;;;;5013752;28;20515;-81
2023/08/19 13:47:21;;;;;;;10.43;9.33;;;;;;;;;;5023203;28;20458;-79
2023/08/19 13:49:53;;;;;;;10.70;9.60;;;;;;;;;;5015527;28;20966;-79
2023/08/19 13:52:42;;;;;;;13.30;11.87;;;;;;;;;;5022423;28;20501;-79
2023/08/19 13:55:11;;;;;;;10.87;9.80;;;;;;;;;;5020217;28;21019;-80
2023/08/19 13:57:44;;;;;;;10.83;9.73;;;;;;;;;;5013915;28;20458;-80
2023/08/19 14:00:16;;;;;;;10.33;9.30;;;;;;;;;;5023867;28;20487;-80
2023/08/19 14:02:48;;;;;;;10.63;8.63;;;;;;;;;;5020045;28;20915;-80
2023/08/19 14:05:23;;;;;;;9.97;8.63;;;;;;;;;;5021278;28;20483;-82
2023/08/19 14:07:52;;;;;;;10.10;9.20;;;;;;;;;;5014456;28;20464;-80
2023/08/19 14:10:22;;;;;;;11.90;10.63;;;;;;;;;;5016908;28;20463;-81
2023/08/19 14:12:50;;;;;;;9.40;8.50;;;;;;;;;;5023287;28;20455;-82
2023/08/19 14:15:17;;;;;;;11.13;9.97;;;;;;;;;;5024089;28;20459;-80
2023/08/19 14:17:46;;;;;;;10.13;9.23;;;;;;;;;;5020539;28;20477;-80
2023/08/19 14:20:20;;;;;;;14.93;12.63;;;;;;;;;;5023226;28;20735;-79
2023/08/19 14:22:49;;;;;;;12.93;11.40;;;;;;;;;;5021656;28;20471;-79
2023/08/19 14:25:22;;;;;;;11.10;9.67;;;;;;;;;;5015347;28;20891;-78
2023/08/19 14:27:52;;;;;;;10.70;8.93;;;;;;;;;;5022232;28;20506;-82
2023/08/19 14:35:59;;;;;;;11.57;8.60;;;;;;;;;;4864624;26;20553;-82
2023/08/19 14:38:27;;;;;;;11.10;9.43;;;;;;;;;;5014828;28;20487;-80
2023/08/19 14:41:03;;;;;;;10.10;9.10;;;;;;;;;;5010829;28;20451;-80
2023/08/19 14:43:31;;;;;;;10.53;9.50;;;;;;;;;;5021600;28;20478;-80
2023/08/19 14:45:59;;;;;;;11.33;7.83;;;;;;;;;;5019207;28;20491;-79
2023/08/19 14:48:27;;;;;;;11.23;8.47;;;;;;;;;;5019264;28;20547;-78
2023/08/19 14:50:54;;;;;;;12.93;11.60;;;;;;;;;;5003701;28;20501;-77
2023/08/19 14:53:22;;;;;;;11.90;10.63;;;;;;;;;;5018228;28;20559;-78
2023/08/19 14:55:49;;;;;;;12.07;8.90;;;;;;;;;;5018834;28;20460;-82
2023/08/19 14:58:18;;;;;;;19.17;9.80;;;;;;;;;;5022682;28;21216;-79